Alev Kaman — TCCN5 — position and weather

sailwx.info

Track history (hours):
 
Tides and Currents Weather Stations Pressure Air Temp Water Temp Dewpoint Dewpoint Depression Visibility Wind Speed Wind Dir Waves Ship Positions

Alev Kaman

Last reported at 2016-Apr-30 20:33 UTC. Time now 2016-May-01 06:09 UTC.
Position N 40°44' E 029°25'.

Length 93 m; draft 6.2 m.

Type: Tanker. MMSI: 271000716.

Date/timePositionNaut miles runAvg speedWind from/ knotsBaromVisibWave heightAir tempDewpointWater temp
2016-Apr-30 20:33N 40°44' E 029°25'9 9.3
2016-Apr-30 19:33N 40°45' E 029°13'10 9.9
2016-Apr-30 18:32N 40°49' E 029°01'10 9.8
2016-Apr-30 17:33N 40°59' E 028°59'  
2016-Apr-25 20:10N 40°46' E 028°57'0 0.1
2016-Apr-25 19:32N 40°46' E 028°57'0 0.1
2016-Apr-25 18:26N 40°46' E 028°57'0 0.1
2016-Apr-25 17:32N 40°46' E 028°57'0 0.1
2016-Apr-25 16:29N 40°46' E 028°57'0 0.1
2016-Apr-25 15:29N 40°46' E 028°57'0 0.0
2016-Apr-25 14:29N 40°46' E 028°57'0 0.0
2016-Apr-25 13:33N 40°46' E 028°57'0 0.2
2016-Apr-25 12:31N 40°46' E 028°57'8 7.7
2016-Apr-25 11:27N 40°47' E 029°08'910.0
2016-Apr-25 10:33N 40°45' E 029°19'15 0.5
2016-Apr-24 05:33N 40°46' E 029°39'5 0.3
2016-Apr-23 13:04N 40°46' E 029°33'  
Track history (hours):
 
Tides and Currents Weather Stations Pressure Air Temp Water Temp Dewpoint Dewpoint Depression Visibility Wind Speed Wind Dir Waves Ship Positions

Alev Kaman

Last reported at 2016-Apr-30 20:33 UTC. Time now 2016-May-01 06:09 UTC.
Position N 40°44' E 029°25'.

Length 93 m; draft 6.2 m.

Type: Tanker. MMSI: 271000716.

Date/timePositionNaut miles runAvg speedWind from/ knotsBaromVisibWave heightAir tempDewpointWater temp
2016-Apr-30 20:33N 40°44' E 029°25'9 9.3
2016-Apr-30 19:33N 40°45' E 029°13'10 9.9
2016-Apr-30 18:32N 40°49' E 029°01'10 9.8
2016-Apr-30 17:33N 40°59' E 028°59'  
2016-Apr-25 20:10N 40°46' E 028°57'0 0.1
2016-Apr-25 19:32N 40°46' E 028°57'0 0.1
2016-Apr-25 18:26N 40°46' E 028°57'0 0.1
2016-Apr-25 17:32N 40°46' E 028°57'0 0.1
2016-Apr-25 16:29N 40°46' E 028°57'0 0.1
2016-Apr-25 15:29N 40°46' E 028°57'0 0.0
2016-Apr-25 14:29N 40°46' E 028°57'0 0.0
2016-Apr-25 13:33N 40°46' E 028°57'0 0.2
2016-Apr-25 12:31N 40°46' E 028°57'8 7.7
2016-Apr-25 11:27N 40°47' E 029°08'910.0
2016-Apr-25 10:33N 40°45' E 029°19'15 0.5
2016-Apr-24 05:33N 40°46' E 029°39'5 0.3
2016-Apr-23 13:04N 40°46' E 029°33'  

Dump ship's entire track history